Airport Name : Coronel Fap Alfredo Mendivil Duarte

Other Name : Ayacucho

ICAO : SPHO

IATA : AYP

FAA :

Latitude : -13.154819

Longitude : -74.204417

Country : Peru

Local Date and Time : 22 Oct 2020 12:59

 

TAF (Terminal Aerodrome Forecast)

TAF SPHO 221700Z 2218/2318 13008KT 9999 BKN030 TX25/2220Z TN11/2311Z TEMPO 2218/2222 FEW030TCU SCT050 BKN080

 

METAR (METeorological Aerodrome Report)

SPHO 221700Z VRB03KT 9999 BKN040 22/05 Q1028 RMK PP000

SPHO 221600Z VRB03KT 9999 BKN030 21/04 Q1029 RMK PP000

SPHO 221500Z VRB02KT 9999 SCT020 BKN070 19/06 Q1031 RMK PP000

SPHO 221400Z 05003KT 320V090 9999 FEW020 OVC070 18/06 Q1031 RMK PP000

To Charter a Jet Click here.